createdAt,value
2018-07-09T00:00:37.592Z,8.00
2018-07-09T00:03:11.518Z,5.63
2018-07-09T00:05:57.081Z,5.40
2018-07-09T00:08:28.326Z,4.90
2018-07-09T00:11:08.383Z,5.10
2018-07-09T00:13:39.908Z,5.47
2018-07-09T00:16:11.363Z,6.53
2018-07-09T00:18:42.752Z,7.33
2018-07-09T00:21:14.138Z,6.70
2018-07-09T00:23:45.362Z,6.07
2018-07-09T00:26:16.886Z,7.43
2018-07-09T00:28:49.018Z,5.60
2018-07-09T00:36:08.062Z,5.93
2018-07-09T00:38:39.447Z,7.07
2018-07-09T00:41:10.815Z,5.13
2018-07-09T00:43:42.065Z,6.10
2018-07-09T00:46:13.512Z,6.10
2018-07-09T00:48:44.816Z,6.10
2018-07-09T00:51:16.266Z,7.03
2018-07-09T00:53:47.819Z,6.73
2018-07-09T00:56:19.304Z,5.20
2018-07-09T00:58:50.956Z,8.17
2018-07-09T01:01:22.230Z,5.77
2018-07-09T01:03:53.523Z,7.63
2018-07-09T01:06:25.180Z,6.70
2018-07-09T01:08:56.427Z,5.70
2018-07-09T01:11:45.861Z,6.60
2018-07-09T01:14:17.140Z,5.57
2018-07-09T01:16:48.169Z,5.27
2018-07-09T01:19:19.852Z,5.27
2018-07-09T01:21:51.900Z,5.77
2018-07-09T01:24:23.059Z,5.70
2018-07-09T01:26:54.969Z,5.43
2018-07-09T01:29:26.575Z,8.57
2018-07-09T01:31:57.763Z,5.50
2018-07-09T01:34:28.862Z,5.17
2018-07-09T01:37:00.210Z,5.33
2018-07-09T01:39:31.467Z,5.20
2018-07-09T01:42:02.807Z,6.43
2018-07-09T01:44:34.666Z,6.73
2018-07-09T01:47:05.807Z,5.40
2018-07-09T01:49:37.067Z,5.87
2018-07-09T01:52:08.233Z,5.30
2018-07-09T01:54:40.339Z,5.90
2018-07-09T01:57:11.511Z,5.33
2018-07-09T01:59:42.964Z,6.03
2018-07-09T02:02:14.108Z,5.67
2018-07-09T02:04:45.303Z,6.20
2018-07-09T02:07:16.588Z,5.23
2018-07-09T02:09:47.903Z,5.60
2018-07-09T02:12:19.505Z,8.37
2018-07-09T02:14:50.864Z,6.60
2018-07-09T02:17:22.109Z,6.67
2018-07-09T02:19:53.335Z,5.50
2018-07-09T02:22:24.700Z,5.57
2018-07-09T02:24:55.831Z,5.73
2018-07-09T02:27:27.088Z,5.57
2018-07-09T02:29:58.436Z,6.80
2018-07-09T02:32:29.791Z,5.97
2018-07-09T02:35:01.456Z,5.90
2018-07-09T02:37:32.595Z,6.30
2018-07-09T02:40:03.815Z,8.97
2018-07-09T02:42:35.282Z,7.00
2018-07-09T02:45:06.767Z,6.77
2018-07-09T02:47:38.132Z,6.07
2018-07-09T02:50:09.494Z,6.53
2018-07-09T02:52:42.000Z,6.67
2018-07-09T02:55:13.599Z,6.10
2018-07-09T02:57:44.660Z,6.53
2018-07-09T03:00:15.907Z,6.00
2018-07-09T03:02:47.630Z,6.07
2018-07-09T03:05:19.068Z,6.17
2018-07-09T03:07:50.472Z,6.00
2018-07-09T03:10:21.775Z,6.33
2018-07-09T03:12:53.011Z,6.97
2018-07-09T03:15:24.252Z,5.93
2018-07-09T03:17:55.399Z,6.00
2018-07-09T03:20:26.803Z,6.47
2018-07-09T03:22:58.215Z,6.63
2018-07-09T03:25:29.873Z,6.10
2018-07-09T03:28:01.623Z,6.20
2018-07-09T03:30:32.764Z,6.13
2018-07-09T03:33:04.384Z,6.67
2018-07-09T03:35:35.971Z,7.77
2018-07-09T03:38:07.293Z,6.90
2018-07-09T03:40:39.041Z,7.33
2018-07-09T03:44:12.949Z,8.73
2018-07-09T03:46:44.009Z,7.77
2018-07-09T03:49:15.319Z,8.10
2018-07-09T03:51:46.792Z,6.73
2018-07-09T03:54:18.188Z,6.70
2018-07-09T03:56:49.582Z,8.63
2018-07-09T03:59:20.932Z,8.47
2018-07-09T04:01:52.285Z,8.10
2018-07-09T04:04:24.283Z,7.57
2018-07-09T04:06:55.644Z,6.90
2018-07-09T04:09:27.104Z,6.80
2018-07-09T04:11:58.279Z,6.87
2018-07-09T04:14:29.491Z,7.10
2018-07-09T04:17:00.642Z,8.17
2018-07-09T04:19:31.792Z,7.90
2018-07-09T04:22:03.020Z,7.20
2018-07-09T04:24:34.207Z,7.10
2018-07-09T04:27:05.413Z,7.77
2018-07-09T04:29:36.756Z,7.03
2018-07-09T04:32:07.879Z,8.33
2018-07-09T04:34:39.459Z,10.57
2018-07-09T04:37:10.179Z,7.10
2018-07-09T04:39:41.540Z,7.97
2018-07-09T04:42:12.705Z,8.10
2018-07-09T04:44:43.947Z,7.57
2018-07-09T04:47:15.428Z,8.43
2018-07-09T04:49:46.131Z,8.30
2018-07-09T04:52:17.326Z,9.43
2018-07-09T04:54:48.476Z,7.80
2018-07-09T04:57:19.927Z,8.53
2018-07-09T04:59:51.107Z,7.10
2018-07-09T05:02:22.516Z,9.00
2018-07-09T05:04:54.024Z,8.03
2018-07-09T05:07:25.420Z,7.73
2018-07-09T05:09:56.627Z,7.57
2018-07-09T05:12:28.000Z,8.33
2018-07-09T05:14:59.257Z,8.50
2018-07-09T05:17:30.598Z,8.20
2018-07-09T05:20:01.877Z,10.60
2018-07-09T05:22:33.213Z,7.90
2018-07-09T05:25:04.435Z,9.00
2018-07-09T05:27:35.667Z,8.93
2018-07-09T05:30:07.055Z,7.40
2018-07-09T05:32:38.191Z,7.70
2018-07-09T05:35:09.373Z,10.93
2018-07-09T05:37:41.007Z,8.60
2018-07-09T05:40:12.288Z,8.23
2018-07-09T05:42:44.358Z,8.10
2018-07-09T05:45:15.507Z,9.70
2018-07-09T05:47:47.144Z,7.97
2018-07-09T05:50:18.303Z,7.37
2018-07-09T05:52:49.690Z,8.20
2018-07-09T05:55:21.005Z,7.27
2018-07-09T05:57:52.201Z,7.67
2018-07-09T06:00:23.285Z,7.37
2018-07-09T06:02:54.936Z,7.67
2018-07-09T06:05:26.065Z,8.43
2018-07-09T06:07:58.215Z,9.17
2018-07-09T06:10:29.407Z,8.87
2018-07-09T06:13:00.607Z,14.00
2018-07-09T06:15:31.746Z,11.73
2018-07-09T06:18:03.151Z,8.17
2018-07-09T06:20:34.374Z,9.50
2018-07-09T06:23:05.990Z,9.33
2018-07-09T06:25:37.141Z,9.13
2018-07-09T06:28:08.501Z,10.77
2018-07-09T06:30:40.345Z,10.40
2018-07-09T06:33:12.556Z,9.03
2018-07-09T06:35:43.819Z,9.30
2018-07-09T06:38:15.303Z,9.03
2018-07-09T06:40:47.320Z,7.20
2018-07-09T06:43:18.600Z,11.47
2018-07-09T06:45:53.019Z,8.83
2018-07-09T06:48:23.808Z,7.20
2018-07-09T06:50:54.935Z,7.33
2018-07-09T06:53:26.135Z,7.37
2018-07-09T06:55:57.535Z,6.97
2018-07-09T06:58:28.882Z,7.60
2018-07-09T07:01:00.138Z,7.13
2018-07-09T07:03:31.675Z,9.63
2018-07-09T07:06:03.131Z,8.47
2018-07-09T07:08:34.529Z,6.80
2018-07-09T07:11:06.120Z,7.90
2018-07-09T07:13:37.069Z,8.23
2018-07-09T07:16:08.256Z,9.50
2018-07-09T07:18:39.501Z,6.53
2018-07-09T07:21:10.652Z,6.80
2018-07-09T07:23:42.252Z,6.87
2018-07-09T07:26:13.827Z,7.17
2018-07-09T07:28:45.170Z,7.40
2018-07-09T07:31:16.504Z,6.80
2018-07-09T07:33:47.763Z,8.27
2018-07-09T07:36:19.224Z,6.53
2018-07-09T07:38:50.396Z,7.10
2018-07-09T07:41:22.327Z,6.47
2018-07-09T07:43:53.718Z,7.07
2018-07-09T07:46:25.087Z,7.13
2018-07-09T07:48:56.428Z,7.07
2018-07-09T07:51:27.560Z,6.60
2018-07-09T07:53:58.206Z,6.47
2018-07-09T07:56:29.449Z,7.67
2018-07-09T07:59:01.092Z,7.33
2018-07-09T08:01:32.204Z,7.80
2018-07-09T08:04:03.399Z,6.60
2018-07-09T08:06:34.754Z,6.53
2018-07-09T08:09:06.401Z,8.57
2018-07-09T08:11:48.567Z,6.97
2018-07-09T08:14:09.391Z,7.50
2018-07-09T08:16:40.740Z,7.83
2018-07-09T08:19:12.212Z,7.70
2018-07-09T08:21:43.336Z,7.30
2018-07-09T08:24:14.800Z,6.67
2018-07-09T08:26:45.903Z,7.43
2018-07-09T08:29:17.330Z,6.93
2018-07-09T08:31:48.654Z,8.50
2018-07-09T08:34:19.630Z,7.17
2018-07-09T08:36:50.679Z,6.90
2018-07-09T08:39:22.216Z,7.00
2018-07-09T08:46:31.822Z,9.10
2018-07-09T08:49:03.315Z,8.20
2018-07-09T08:51:34.439Z,11.00
2018-07-09T08:54:05.949Z,9.70
2018-07-09T08:56:37.196Z,8.67
2018-07-09T08:59:08.238Z,9.03
2018-07-09T09:01:39.576Z,7.27
2018-07-09T09:04:11.007Z,7.83
2018-07-09T09:06:42.636Z,9.70
2018-07-09T09:09:13.985Z,8.87
2018-07-09T09:11:45.159Z,10.73
2018-07-09T09:15:19.218Z,6.27
2018-07-09T09:17:50.411Z,7.80
2018-07-09T09:20:21.505Z,8.43
2018-07-09T09:22:52.651Z,10.00
2018-07-09T09:25:24.068Z,6.70
2018-07-09T09:27:55.203Z,6.42
2018-07-09T09:30:26.604Z,7.65
2018-07-09T09:32:57.774Z,6.33
2018-07-09T09:35:29.224Z,7.33
2018-07-09T09:38:00.552Z,5.90
2018-07-09T09:40:31.223Z,12.18
2018-07-09T09:43:02.396Z,6.60
2018-07-09T09:45:33.760Z,10.23
2018-07-09T09:48:05.118Z,7.80
2018-07-09T09:50:37.165Z,6.60
2018-07-09T09:53:09.255Z,7.80
2018-07-09T09:55:40.651Z,7.20
2018-07-09T09:58:12.047Z,6.72
2018-07-09T10:00:48.552Z,7.12
2018-07-09T10:03:20.004Z,7.50
2018-07-09T10:05:51.312Z,7.97
2018-07-09T10:08:22.303Z,9.73
2018-07-09T10:10:53.508Z,7.00
2018-07-09T10:13:24.704Z,8.90
2018-07-09T10:15:55.894Z,8.30
2018-07-09T10:18:27.103Z,7.90
2018-07-09T10:20:58.336Z,6.60
2018-07-09T10:23:29.576Z,8.35
2018-07-09T10:26:01.147Z,6.17
2018-07-09T10:28:33.304Z,7.12
2018-07-09T10:31:04.640Z,5.42
2018-07-09T10:33:36.011Z,7.45
2018-07-09T10:36:07.604Z,7.87
2018-07-09T10:38:38.860Z,6.20
2018-07-09T10:41:11.008Z,8.03
2018-07-09T10:43:42.324Z,5.90
2018-07-09T10:46:13.347Z,5.85
2018-07-09T10:48:44.544Z,7.72
2018-07-09T10:51:15.943Z,6.90
2018-07-09T10:53:47.140Z,8.25
2018-07-09T10:56:18.763Z,6.12
2018-07-09T10:58:50.144Z,6.50
2018-07-09T11:01:21.306Z,6.90
2018-07-09T11:03:52.657Z,6.90
2018-07-09T11:06:23.695Z,9.85
2018-07-09T11:08:55.510Z,6.40
2018-07-09T11:11:26.621Z,6.62
2018-07-09T11:13:58.047Z,6.70
2018-07-09T11:16:29.247Z,5.15
2018-07-09T11:19:00.391Z,5.53
2018-07-09T11:21:31.603Z,10.25
2018-07-09T11:24:03.074Z,7.30
2018-07-09T11:26:34.843Z,6.30
2018-07-09T11:29:06.080Z,6.87
2018-07-09T11:31:37.195Z,6.28
2018-07-09T11:34:08.880Z,8.83
2018-07-09T11:36:40.128Z,5.37
2018-07-09T11:39:11.784Z,6.28
2018-07-09T11:41:42.930Z,7.50
2018-07-09T11:44:14.348Z,7.25
2018-07-09T11:46:45.693Z,6.17
2018-07-09T11:49:16.894Z,9.55
2018-07-09T11:51:48.275Z,6.10
2018-07-09T11:54:19.476Z,8.65
2018-07-09T11:56:50.595Z,6.87
2018-07-09T11:59:21.866Z,5.62
2018-07-09T12:01:53.202Z,9.68
2018-07-09T12:04:23.952Z,6.80
2018-07-09T12:06:55.277Z,7.58
2018-07-09T12:09:26.846Z,7.92
2018-07-09T12:11:58.272Z,8.40
2018-07-09T12:14:29.609Z,7.25
2018-07-09T12:17:00.792Z,6.78
2018-07-09T12:19:31.959Z,7.33
2018-07-09T12:22:03.334Z,5.75
2018-07-09T12:24:35.031Z,5.10
2018-07-09T12:27:06.563Z,5.47
2018-07-09T12:29:38.020Z,5.47
2018-07-09T12:32:09.311Z,5.90
2018-07-09T12:34:40.751Z,7.83
2018-07-09T12:37:12.171Z,6.35
2018-07-09T12:39:43.816Z,5.75
2018-07-09T12:42:15.002Z,6.87
2018-07-09T12:44:46.048Z,6.12
2018-07-09T12:47:17.256Z,6.55
2018-07-09T12:49:48.929Z,9.68
2018-07-09T12:52:20.197Z,6.50
2018-07-09T12:54:51.439Z,7.47
2018-07-09T12:57:23.043Z,7.15
2018-07-09T12:59:54.567Z,6.17
2018-07-09T13:02:25.973Z,11.45
2018-07-09T13:04:57.624Z,6.30
2018-07-09T13:07:28.908Z,5.85
2018-07-09T13:10:00.628Z,6.40
2018-07-09T13:12:31.704Z,6.05
2018-07-09T13:15:03.172Z,6.47
2018-07-09T13:17:34.527Z,6.05
2018-07-09T13:20:05.959Z,7.15
2018-07-09T13:22:44.023Z,8.00
2018-07-09T13:25:15.312Z,5.92
2018-07-09T13:27:46.623Z,5.87
2018-07-09T13:30:17.301Z,7.78
2018-07-09T13:32:49.048Z,7.53
2018-07-09T13:35:22.310Z,13.25
2018-07-09T13:37:53.812Z,6.22
2018-07-09T13:40:25.260Z,6.30
2018-07-09T13:42:56.497Z,6.20
2018-07-09T13:45:27.804Z,5.97
2018-07-09T13:47:59.270Z,7.50
2018-07-09T13:50:30.712Z,6.20
2018-07-09T13:53:02.306Z,6.62
2018-07-09T13:55:33.775Z,5.92
2018-07-09T13:58:04.998Z,6.92
2018-07-09T14:00:36.319Z,6.33
2018-07-09T14:03:07.898Z,6.00
2018-07-09T14:05:39.315Z,7.80
2018-07-09T14:08:10.313Z,6.33
2018-07-09T14:10:41.711Z,6.75
2018-07-09T14:13:12.911Z,8.38
2018-07-09T14:15:44.288Z,6.70
2018-07-09T14:18:15.915Z,6.85
2018-07-09T14:20:47.140Z,6.83
2018-07-09T14:23:19.772Z,8.05
2018-07-09T14:25:50.811Z,6.65
2018-07-09T14:28:22.009Z,6.28
2018-07-09T14:30:53.380Z,6.17
2018-07-09T14:33:24.401Z,6.25
2018-07-09T14:35:56.409Z,6.37
2018-07-09T14:38:27.570Z,6.60
2018-07-09T14:40:59.274Z,7.45
2018-07-09T14:43:30.331Z,6.55
2018-07-09T14:46:01.527Z,7.55
2018-07-09T14:48:32.903Z,5.92
2018-07-09T14:51:04.976Z,7.30
2018-07-09T14:53:36.268Z,7.22
2018-07-09T14:56:07.751Z,7.12
2018-07-09T14:58:38.838Z,8.68
2018-07-09T15:01:10.089Z,7.87
2018-07-09T15:03:41.224Z,8.80
2018-07-09T15:06:12.469Z,6.55
2018-07-09T15:08:43.611Z,6.22
2018-07-09T15:11:15.047Z,7.62
2018-07-09T15:13:46.416Z,5.90
2018-07-09T15:16:17.632Z,7.72
2018-07-09T15:18:48.959Z,6.30
2018-07-09T15:21:20.207Z,7.28
2018-07-09T15:23:51.350Z,7.20
2018-07-09T15:26:22.783Z,6.12
2018-07-09T15:28:54.149Z,6.35
2018-07-09T15:31:25.339Z,6.08
2018-07-09T15:33:56.540Z,7.95
2018-07-09T15:36:27.938Z,8.48
2018-07-09T15:38:59.344Z,6.12
2018-07-09T15:41:30.936Z,6.75
2018-07-09T15:44:04.700Z,7.50
2018-07-09T15:46:35.793Z,6.75
2018-07-09T15:49:07.307Z,7.42
2018-07-09T15:51:38.851Z,6.25
2018-07-09T15:54:09.976Z,6.67
2018-07-09T15:56:41.382Z,6.08
2018-07-09T15:59:12.831Z,6.42
2018-07-09T16:01:44.128Z,7.45
2018-07-09T16:04:15.135Z,7.37
2018-07-09T16:06:46.540Z,7.95
2018-07-09T16:09:17.819Z,6.58
2018-07-09T16:11:48.564Z,7.37
2018-07-09T16:14:19.769Z,6.90
2018-07-09T16:16:51.154Z,7.20
2018-07-09T16:19:22.979Z,7.20
2018-07-09T16:21:54.531Z,6.08
2018-07-09T16:24:25.671Z,6.58
2018-07-09T16:26:56.867Z,7.47
2018-07-09T16:29:28.293Z,8.25
2018-07-09T16:31:59.410Z,6.63
2018-07-09T16:34:31.390Z,6.95
2018-07-09T16:37:02.585Z,6.55
2018-07-09T16:39:34.325Z,6.58
2018-07-09T16:42:05.461Z,6.17
2018-07-09T16:44:36.756Z,6.62
2018-07-09T16:47:08.055Z,9.27
2018-07-09T16:49:39.322Z,6.73
2018-07-09T16:52:10.462Z,6.22
2018-07-09T16:54:41.551Z,6.83
2018-07-09T16:57:13.208Z,7.15
2018-07-09T16:59:44.801Z,6.03
2018-07-09T17:02:16.116Z,6.95
2018-07-09T17:04:47.297Z,6.20
2018-07-09T17:07:19.507Z,6.87
2018-07-09T17:09:50.824Z,7.95
2018-07-09T17:12:21.864Z,6.92
2018-07-09T17:14:53.203Z,8.40
2018-07-09T17:17:24.305Z,7.83
2018-07-09T17:19:55.456Z,6.47
2018-07-09T17:22:26.856Z,7.28
2018-07-09T17:24:58.445Z,7.17
2018-07-09T17:27:29.830Z,11.30
2018-07-09T17:30:01.144Z,6.90
2018-07-09T17:32:32.955Z,6.97
2018-07-09T17:35:04.223Z,6.70
2018-07-09T17:37:35.816Z,7.30
2018-07-09T17:40:06.618Z,7.77
2018-07-09T17:42:37.742Z,9.10
2018-07-09T17:45:08.980Z,8.43
2018-07-09T17:47:40.740Z,6.93
2018-07-09T17:50:11.923Z,7.10
2018-07-09T17:52:43.539Z,8.00
2018-07-09T17:55:14.684Z,6.90
2018-07-09T17:57:46.255Z,6.80
2018-07-09T18:00:17.452Z,9.37
2018-07-09T18:02:48.864Z,6.70
2018-07-09T18:05:20.183Z,7.00
2018-07-09T18:07:51.433Z,7.80
2018-07-09T18:10:22.680Z,7.43
2018-07-09T18:12:53.952Z,7.20
2018-07-09T18:15:24.968Z,7.53
2018-07-09T18:17:56.268Z,6.47
2018-07-09T18:20:26.912Z,7.13
2018-07-09T18:22:58.155Z,8.93
2018-07-09T18:25:29.628Z,7.20
2018-07-09T18:28:00.893Z,7.33
2018-07-09T18:30:32.123Z,7.50
2018-07-09T18:33:03.398Z,7.67
2018-07-09T18:35:34.891Z,10.90
2018-07-09T18:38:06.271Z,8.47
2018-07-09T18:40:37.468Z,7.80
2018-07-09T18:43:08.848Z,10.47
2018-07-09T18:45:40.300Z,10.00
2018-07-09T18:48:11.820Z,9.83
2018-07-09T18:50:43.247Z,11.37
2018-07-09T18:53:14.677Z,11.13
2018-07-09T18:55:46.039Z,8.53
2018-07-09T18:58:17.469Z,9.10
2018-07-09T19:00:48.600Z,8.70
2018-07-09T19:03:20.298Z,7.30
2018-07-09T19:06:58.596Z,8.73
2018-07-09T19:09:30.706Z,7.77
2018-07-09T19:12:04.195Z,11.07
2018-07-09T19:14:45.714Z,10.30
2018-07-09T19:18:04.081Z,9.97
2018-07-09T19:21:50.500Z,7.53
2018-07-09T19:24:19.093Z,8.87
2018-07-09T19:26:47.869Z,7.27
2018-07-09T19:29:16.491Z,9.70
2018-07-09T19:31:44.929Z,7.30
2018-07-09T19:34:13.554Z,9.63
2018-07-09T19:36:42.321Z,8.13
2018-07-09T19:39:11.753Z,8.43
2018-07-09T19:41:40.445Z,7.40
2018-07-09T19:44:08.963Z,7.73
2018-07-09T19:46:37.317Z,9.57
2018-07-09T19:49:05.949Z,7.63
2018-07-09T19:51:34.801Z,7.53
2018-07-09T19:54:03.696Z,8.20
2018-07-09T19:56:32.364Z,7.43
2018-07-09T19:59:00.814Z,9.13
2018-07-09T20:01:29.410Z,8.50
2018-07-09T20:03:58.057Z,8.40
2018-07-09T20:06:26.688Z,8.83
2018-07-09T20:08:59.881Z,9.60
2018-07-09T20:11:33.189Z,7.70
2018-07-09T20:14:06.596Z,11.60
2018-07-09T20:16:39.706Z,8.40
2018-07-09T20:19:08.568Z,11.27
2018-07-09T20:21:38.375Z,9.23
2018-07-09T20:24:07.790Z,9.37
2018-07-09T20:26:36.543Z,15.17
2018-07-09T20:29:05.278Z,12.73
2018-07-09T20:31:34.012Z,9.40
2018-07-09T20:34:02.369Z,10.90
2018-07-09T20:36:31.083Z,12.83
2018-07-09T20:38:59.916Z,12.20
2018-07-09T20:41:28.288Z,13.10
2018-07-09T20:43:57.384Z,12.60
2018-07-09T20:46:26.019Z,10.77
2018-07-09T20:48:55.834Z,10.50
2018-07-09T20:51:24.470Z,12.43
2018-07-09T20:53:53.106Z,12.37
2018-07-09T20:56:21.940Z,11.77
2018-07-09T20:58:50.572Z,10.97
2018-07-09T21:01:19.417Z,10.90
2018-07-09T21:03:48.170Z,11.20
2018-07-09T21:06:17.069Z,10.63
2018-07-09T21:08:46.693Z,11.23
2018-07-09T21:11:15.115Z,9.77
2018-07-09T21:13:43.640Z,8.77
2018-07-09T21:16:12.545Z,11.00
2018-07-09T21:18:41.233Z,10.47
2018-07-09T21:21:09.594Z,10.97
2018-07-09T21:23:38.785Z,11.03
2018-07-09T21:26:07.336Z,10.60
2018-07-09T21:28:36.391Z,11.60
2018-07-09T21:31:04.990Z,9.00
2018-07-09T21:33:33.427Z,9.80
2018-07-09T21:36:02.272Z,8.43
2018-07-09T21:38:31.103Z,17.90
2018-07-09T21:40:59.458Z,14.40
2018-07-09T21:43:27.999Z,9.73
2018-07-09T21:45:56.480Z,12.67
2018-07-09T21:48:29.783Z,14.13
2018-07-09T21:50:53.887Z,16.63
2018-07-09T21:53:23.506Z,20.63
2018-07-09T21:55:52.070Z,11.20
2018-07-09T21:58:21.172Z,13.10
2018-07-09T22:00:50.363Z,12.70
2018-07-09T22:03:19.341Z,10.60
2018-07-09T22:05:48.410Z,13.17
2018-07-09T22:08:17.075Z,10.27
2018-07-09T22:10:45.922Z,9.27
2018-07-09T22:13:14.557Z,11.57
2018-07-09T22:15:43.680Z,9.50
2018-07-09T22:18:12.023Z,9.47
2018-07-09T22:20:40.652Z,9.33
2018-07-09T22:23:09.497Z,10.30
2018-07-09T22:25:38.406Z,9.37
2018-07-09T22:28:07.157Z,10.40
2018-07-09T22:30:38.384Z,11.00
2018-07-09T22:33:10.870Z,10.70
2018-07-09T22:35:42.104Z,9.47
2018-07-09T22:38:13.575Z,9.40
2018-07-09T22:40:44.703Z,9.83
2018-07-09T22:44:26.363Z,14.03
2018-07-09T22:46:57.849Z,12.37
2018-07-09T22:49:29.252Z,10.90
2018-07-09T22:52:01.120Z,9.57
2018-07-09T22:54:32.198Z,9.10
2018-07-09T22:57:03.672Z,11.80
2018-07-09T22:59:34.832Z,11.07
2018-07-09T23:02:06.048Z,9.03
2018-07-09T23:04:37.441Z,8.27
2018-07-09T23:07:09.614Z,8.93
2018-07-09T23:10:06.484Z,9.13
2018-07-09T23:15:02.154Z,10.53
2018-07-09T23:17:49.297Z,13.00
2018-07-09T23:22:31.051Z,9.50
2018-07-09T23:24:59.691Z,12.33
2018-07-09T23:27:29.309Z,9.53
2018-07-09T23:29:58.001Z,11.00
2018-07-09T23:32:26.377Z,12.20
2018-07-09T23:34:54.814Z,13.17
2018-07-09T23:37:23.444Z,11.20
2018-07-09T23:39:52.284Z,13.93
2018-07-09T23:42:20.981Z,15.63
2018-07-09T23:44:49.752Z,16.57
2018-07-09T23:47:18.975Z,17.17
2018-07-09T23:49:47.551Z,15.63
2018-07-09T23:52:16.334Z,20.50
2018-07-09T23:54:44.671Z,18.43
2018-07-09T23:59:35.480Z,19.17
